sensor_id;sensor_type;location;lat;lon;timestamp;P1;durP1;ratioP1;P2;durP2;ratioP2
20411;SDS011;10365;52.578;8.138;2023-03-01T00:00:12;9.05;;;4.20;;
20411;SDS011;10365;52.578;8.138;2023-03-01T00:02:39;7.95;;;3.47;;
20411;SDS011;10365;52.578;8.138;2023-03-01T00:05:04;6.18;;;3.38;;
20411;SDS011;10365;52.578;8.138;2023-03-01T00:07:30;7.03;;;3.40;;
20411;SDS011;10365;52.578;8.138;2023-03-01T00:09:55;8.02;;;3.33;;
20411;SDS011;10365;52.578;8.138;2023-03-01T00:12:20;6.75;;;3.58;;
20411;SDS011;10365;52.578;8.138;2023-03-01T00:14:46;7.03;;;3.45;;
20411;SDS011;10365;52.578;8.138;2023-03-01T00:17:11;6.15;;;2.92;;
20411;SDS011;10365;52.578;8.138;2023-03-01T00:19:36;8.57;;;3.15;;
20411;SDS011;10365;52.578;8.138;2023-03-01T00:22:02;7.47;;;3.88;;
20411;SDS011;10365;52.578;8.138;2023-03-01T00:24:27;6.18;;;2.85;;
20411;SDS011;10365;52.578;8.138;2023-03-01T00:26:53;7.65;;;3.50;;
20411;SDS011;10365;52.578;8.138;2023-03-01T00:29:21;9.95;;;3.40;;
20411;SDS011;10365;52.578;8.138;2023-03-01T00:31:46;7.10;;;2.97;;
20411;SDS011;10365;52.578;8.138;2023-03-01T00:34:11;7.18;;;3.55;;
20411;SDS011;10365;52.578;8.138;2023-03-01T00:36:37;7.10;;;3.28;;
20411;SDS011;10365;52.578;8.138;2023-03-01T00:39:03;6.32;;;3.17;;
20411;SDS011;10365;52.578;8.138;2023-03-01T00:41:29;8.23;;;3.03;;
20411;SDS011;10365;52.578;8.138;2023-03-01T00:43:55;6.00;;;2.72;;
20411;SDS011;10365;52.578;8.138;2023-03-01T00:46:21;7.65;;;2.83;;
20411;SDS011;10365;52.578;8.138;2023-03-01T00:48:47;6.47;;;3.05;;
20411;SDS011;10365;52.578;8.138;2023-03-01T00:51:15;7.53;;;3.40;;
20411;SDS011;10365;52.578;8.138;2023-03-01T00:53:41;4.93;;;2.50;;
20411;SDS011;10365;52.578;8.138;2023-03-01T00:56:07;4.43;;;2.72;;
20411;SDS011;10365;52.578;8.138;2023-03-01T00:58:33;7.10;;;2.83;;
20411;SDS011;10365;52.578;8.138;2023-03-01T01:00:59;5.82;;;3.00;;
20411;SDS011;10365;52.578;8.138;2023-03-01T01:03:24;4.97;;;2.95;;
20411;SDS011;10365;52.578;8.138;2023-03-01T01:05:51;7.63;;;3.50;;
20411;SDS011;10365;52.578;8.138;2023-03-01T01:08:17;6.32;;;2.92;;
20411;SDS011;10365;52.578;8.138;2023-03-01T01:10:43;4.88;;;2.55;;
20411;SDS011;10365;52.578;8.138;2023-03-01T01:13:08;6.28;;;3.20;;
20411;SDS011;10365;52.578;8.138;2023-03-01T01:15:34;6.55;;;3.00;;
20411;SDS011;10365;52.578;8.138;2023-03-01T01:18:00;5.45;;;2.88;;
20411;SDS011;10365;52.578;8.138;2023-03-01T01:20:26;4.88;;;2.42;;
20411;SDS011;10365;52.578;8.138;2023-03-01T01:22:51;5.55;;;2.70;;
20411;SDS011;10365;52.578;8.138;2023-03-01T01:25:17;6.43;;;3.20;;
20411;SDS011;10365;52.578;8.138;2023-03-01T01:27:42;7.63;;;2.50;;
20411;SDS011;10365;52.578;8.138;2023-03-01T01:30:08;5.25;;;3.17;;
20411;SDS011;10365;52.578;8.138;2023-03-01T01:32:33;6.13;;;3.13;;
20411;SDS011;10365;52.578;8.138;2023-03-01T01:34:59;6.95;;;2.92;;
20411;SDS011;10365;52.578;8.138;2023-03-01T01:37:24;3.85;;;2.67;;
20411;SDS011;10365;52.578;8.138;2023-03-01T01:40:00;5.05;;;2.58;;
20411;SDS011;10365;52.578;8.138;2023-03-01T01:42:26;6.30;;;3.15;;
20411;SDS011;10365;52.578;8.138;2023-03-01T01:47:36;5.53;;;2.70;;
20411;SDS011;10365;52.578;8.138;2023-03-01T01:50:02;7.03;;;3.17;;
20411;SDS011;10365;52.578;8.138;2023-03-01T01:52:30;5.72;;;3.05;;
20411;SDS011;10365;52.578;8.138;2023-03-01T01:55:07;5.18;;;2.70;;
20411;SDS011;10365;52.578;8.138;2023-03-01T01:57:37;9.60;;;3.15;;
20411;SDS011;10365;52.578;8.138;2023-03-01T02:00:05;4.78;;;2.90;;
20411;SDS011;10365;52.578;8.138;2023-03-01T02:02:38;8.95;;;3.40;;
20411;SDS011;10365;52.578;8.138;2023-03-01T02:07:48;9.10;;;4.28;;
20411;SDS011;10365;52.578;8.138;2023-03-01T02:10:18;8.60;;;3.30;;
20411;SDS011;10365;52.578;8.138;2023-03-01T02:12:44;6.32;;;3.20;;
20411;SDS011;10365;52.578;8.138;2023-03-01T02:15:10;7.57;;;4.25;;
20411;SDS011;10365;52.578;8.138;2023-03-01T02:17:36;8.23;;;3.85;;
20411;SDS011;10365;52.578;8.138;2023-03-01T02:22:46;5.90;;;3.13;;
20411;SDS011;10365;52.578;8.138;2023-03-01T02:28:01;8.43;;;3.53;;
20411;SDS011;10365;52.578;8.138;2023-03-01T02:30:29;7.80;;;4.07;;
20411;SDS011;10365;52.578;8.138;2023-03-01T02:32:55;7.68;;;3.85;;
20411;SDS011;10365;52.578;8.138;2023-03-01T02:35:27;7.00;;;3.55;;
20411;SDS011;10365;52.578;8.138;2023-03-01T02:37:54;7.35;;;3.50;;
20411;SDS011;10365;52.578;8.138;2023-03-01T02:40:22;7.30;;;4.00;;
20411;SDS011;10365;52.578;8.138;2023-03-01T02:42:54;6.90;;;3.95;;
20411;SDS011;10365;52.578;8.138;2023-03-01T02:45:21;8.57;;;4.30;;
20411;SDS011;10365;52.578;8.138;2023-03-01T02:47:46;9.18;;;3.88;;
20411;SDS011;10365;52.578;8.138;2023-03-01T02:53:11;6.22;;;4.25;;
20411;SDS011;10365;52.578;8.138;2023-03-01T02:55:38;11.35;;;4.30;;
20411;SDS011;10365;52.578;8.138;2023-03-01T02:58:04;9.98;;;4.47;;
20411;SDS011;10365;52.578;8.138;2023-03-01T03:00:34;8.27;;;4.43;;
20411;SDS011;10365;52.578;8.138;2023-03-01T03:03:01;9.38;;;4.05;;
20411;SDS011;10365;52.578;8.138;2023-03-01T03:05:28;9.82;;;4.85;;
20411;SDS011;10365;52.578;8.138;2023-03-01T03:07:56;6.93;;;4.13;;
20411;SDS011;10365;52.578;8.138;2023-03-01T03:10:23;8.00;;;4.15;;
20411;SDS011;10365;52.578;8.138;2023-03-01T03:12:54;8.77;;;4.28;;
20411;SDS011;10365;52.578;8.138;2023-03-01T03:15:20;7.45;;;4.20;;
20411;SDS011;10365;52.578;8.138;2023-03-01T03:17:46;7.75;;;3.88;;
20411;SDS011;10365;52.578;8.138;2023-03-01T03:20:12;6.53;;;4.00;;
20411;SDS011;10365;52.578;8.138;2023-03-01T03:22:38;10.57;;;4.88;;
20411;SDS011;10365;52.578;8.138;2023-03-01T03:25:04;8.95;;;4.30;;
20411;SDS011;10365;52.578;8.138;2023-03-01T03:27:30;8.85;;;4.18;;
20411;SDS011;10365;52.578;8.138;2023-03-01T03:29:57;11.98;;;4.45;;
20411;SDS011;10365;52.578;8.138;2023-03-01T03:32:22;5.95;;;3.72;;
20411;SDS011;10365;52.578;8.138;2023-03-01T03:34:47;9.35;;;4.53;;
20411;SDS011;10365;52.578;8.138;2023-03-01T03:37:14;7.63;;;4.00;;
20411;SDS011;10365;52.578;8.138;2023-03-01T03:39:59;10.40;;;4.80;;
20411;SDS011;10365;52.578;8.138;2023-03-01T03:42:24;8.68;;;4.53;;
20411;SDS011;10365;52.578;8.138;2023-03-01T03:44:50;15.43;;;5.63;;
20411;SDS011;10365;52.578;8.138;2023-03-01T03:47:16;8.77;;;4.18;;
20411;SDS011;10365;52.578;8.138;2023-03-01T03:49:41;9.50;;;4.53;;
20411;SDS011;10365;52.578;8.138;2023-03-01T03:52:06;7.57;;;4.18;;
20411;SDS011;10365;52.578;8.138;2023-03-01T03:54:41;8.90;;;4.60;;
20411;SDS011;10365;52.578;8.138;2023-03-01T03:57:07;9.15;;;4.43;;
20411;SDS011;10365;52.578;8.138;2023-03-01T03:59:32;9.43;;;4.65;;
20411;SDS011;10365;52.578;8.138;2023-03-01T04:01:58;8.35;;;4.35;;
20411;SDS011;10365;52.578;8.138;2023-03-01T04:04:23;8.55;;;5.07;;
20411;SDS011;10365;52.578;8.138;2023-03-01T04:06:48;6.30;;;3.78;;
20411;SDS011;10365;52.578;8.138;2023-03-01T04:09:14;7.03;;;4.05;;
20411;SDS011;10365;52.578;8.138;2023-03-01T04:11:39;7.72;;;4.13;;
20411;SDS011;10365;52.578;8.138;2023-03-01T04:14:05;6.75;;;4.13;;
20411;SDS011;10365;52.578;8.138;2023-03-01T04:16:30;9.88;;;4.85;;
20411;SDS011;10365;52.578;8.138;2023-03-01T04:18:55;7.40;;;3.85;;
20411;SDS011;10365;52.578;8.138;2023-03-01T04:21:21;6.93;;;4.18;;
20411;SDS011;10365;52.578;8.138;2023-03-01T04:23:47;7.18;;;3.72;;
20411;SDS011;10365;52.578;8.138;2023-03-01T04:26:13;7.00;;;3.97;;
20411;SDS011;10365;52.578;8.138;2023-03-01T04:28:39;8.35;;;3.78;;
20411;SDS011;10365;52.578;8.138;2023-03-01T04:31:09;7.55;;;3.92;;
20411;SDS011;10365;52.578;8.138;2023-03-01T04:33:46;8.18;;;4.40;;
20411;SDS011;10365;52.578;8.138;2023-03-01T04:36:13;9.57;;;3.88;;
20411;SDS011;10365;52.578;8.138;2023-03-01T04:38:38;10.52;;;4.57;;
20411;SDS011;10365;52.578;8.138;2023-03-01T04:41:05;7.55;;;4.50;;
20411;SDS011;10365;52.578;8.138;2023-03-01T04:43:31;9.45;;;4.10;;
20411;SDS011;10365;52.578;8.138;2023-03-01T04:46:17;9.65;;;4.57;;
20411;SDS011;10365;52.578;8.138;2023-03-01T04:48:44;7.60;;;4.30;;
20411;SDS011;10365;52.578;8.138;2023-03-01T04:51:09;11.23;;;5.00;;
20411;SDS011;10365;52.578;8.138;2023-03-01T04:53:38;8.88;;;4.70;;
20411;SDS011;10365;52.578;8.138;2023-03-01T04:56:04;7.07;;;4.03;;
20411;SDS011;10365;52.578;8.138;2023-03-01T04:58:30;8.55;;;4.85;;
20411;SDS011;10365;52.578;8.138;2023-03-01T05:00:55;8.23;;;4.80;;
20411;SDS011;10365;52.578;8.138;2023-03-01T05:03:21;12.77;;;5.25;;
20411;SDS011;10365;52.578;8.138;2023-03-01T05:05:48;9.18;;;5.00;;
20411;SDS011;10365;52.578;8.138;2023-03-01T05:08:13;9.05;;;5.55;;
20411;SDS011;10365;52.578;8.138;2023-03-01T05:10:46;11.40;;;5.40;;
20411;SDS011;10365;52.578;8.138;2023-03-01T05:13:12;11.27;;;4.65;;
20411;SDS011;10365;52.578;8.138;2023-03-01T05:15:38;12.07;;;5.40;;
20411;SDS011;10365;52.578;8.138;2023-03-01T05:18:04;12.18;;;5.43;;
20411;SDS011;10365;52.578;8.138;2023-03-01T05:20:29;9.43;;;5.40;;
20411;SDS011;10365;52.578;8.138;2023-03-01T05:22:59;11.18;;;5.75;;
20411;SDS011;10365;52.578;8.138;2023-03-01T05:25:24;9.68;;;4.55;;
20411;SDS011;10365;52.578;8.138;2023-03-01T05:27:50;12.93;;;6.30;;
20411;SDS011;10365;52.578;8.138;2023-03-01T05:30:16;11.10;;;4.85;;
20411;SDS011;10365;52.578;8.138;2023-03-01T05:32:46;10.02;;;5.25;;
20411;SDS011;10365;52.578;8.138;2023-03-01T05:35:12;9.63;;;6.10;;
20411;SDS011;10365;52.578;8.138;2023-03-01T05:37:42;19.48;;;6.57;;
20411;SDS011;10365;52.578;8.138;2023-03-01T05:40:09;10.57;;;5.72;;
20411;SDS011;10365;52.578;8.138;2023-03-01T05:42:50;10.40;;;6.30;;
20411;SDS011;10365;52.578;8.138;2023-03-01T05:45:17;9.57;;;6.10;;
20411;SDS011;10365;52.578;8.138;2023-03-01T05:47:43;11.13;;;6.10;;
20411;SDS011;10365;52.578;8.138;2023-03-01T05:50:16;10.52;;;6.68;;
20411;SDS011;10365;52.578;8.138;2023-03-01T05:52:45;11.68;;;6.50;;
20411;SDS011;10365;52.578;8.138;2023-03-01T05:55:11;11.13;;;5.60;;
20411;SDS011;10365;52.578;8.138;2023-03-01T05:57:36;12.32;;;6.00;;
20411;SDS011;10365;52.578;8.138;2023-03-01T06:00:02;13.02;;;6.45;;
20411;SDS011;10365;52.578;8.138;2023-03-01T06:02:37;10.95;;;6.88;;
20411;SDS011;10365;52.578;8.138;2023-03-01T06:05:04;14.40;;;7.32;;
20411;SDS011;10365;52.578;8.138;2023-03-01T06:07:29;12.15;;;6.35;;
20411;SDS011;10365;52.578;8.138;2023-03-01T06:09:54;11.07;;;5.70;;
20411;SDS011;10365;52.578;8.138;2023-03-01T06:12:20;12.20;;;6.40;;
20411;SDS011;10365;52.578;8.138;2023-03-01T06:14:46;9.73;;;5.55;;
20411;SDS011;10365;52.578;8.138;2023-03-01T06:17:12;20.40;;;7.32;;
20411;SDS011;10365;52.578;8.138;2023-03-01T06:19:37;12.23;;;5.80;;
20411;SDS011;10365;52.578;8.138;2023-03-01T06:22:03;12.13;;;6.20;;
20411;SDS011;10365;52.578;8.138;2023-03-01T06:24:28;13.93;;;6.60;;
20411;SDS011;10365;52.578;8.138;2023-03-01T06:26:54;10.95;;;5.43;;
20411;SDS011;10365;52.578;8.138;2023-03-01T06:29:19;10.27;;;5.20;;
20411;SDS011;10365;52.578;8.138;2023-03-01T06:31:45;10.57;;;5.72;;
20411;SDS011;10365;52.578;8.138;2023-03-01T06:34:11;13.75;;;6.13;;
20411;SDS011;10365;52.578;8.138;2023-03-01T06:36:38;13.02;;;5.68;;
20411;SDS011;10365;52.578;8.138;2023-03-01T06:39:04;10.02;;;4.68;;
20411;SDS011;10365;52.578;8.138;2023-03-01T06:41:30;18.00;;;6.25;;
20411;SDS011;10365;52.578;8.138;2023-03-01T06:43:56;11.90;;;5.80;;
20411;SDS011;10365;52.578;8.138;2023-03-01T06:46:21;12.63;;;6.50;;
20411;SDS011;10365;52.578;8.138;2023-03-01T06:48:47;13.73;;;6.22;;
20411;SDS011;10365;52.578;8.138;2023-03-01T06:51:12;11.02;;;5.97;;
20411;SDS011;10365;52.578;8.138;2023-03-01T06:53:39;14.18;;;6.18;;
20411;SDS011;10365;52.578;8.138;2023-03-01T06:56:04;14.35;;;6.55;;
20411;SDS011;10365;52.578;8.138;2023-03-01T06:58:29;11.63;;;6.47;;
20411;SDS011;10365;52.578;8.138;2023-03-01T07:00:55;12.98;;;5.65;;
20411;SDS011;10365;52.578;8.138;2023-03-01T07:03:20;13.35;;;6.45;;
20411;SDS011;10365;52.578;8.138;2023-03-01T07:05:48;14.20;;;6.60;;
20411;SDS011;10365;52.578;8.138;2023-03-01T07:08:14;16.65;;;7.03;;
20411;SDS011;10365;52.578;8.138;2023-03-01T07:10:39;15.18;;;7.00;;
20411;SDS011;10365;52.578;8.138;2023-03-01T07:13:04;16.77;;;6.82;;
20411;SDS011;10365;52.578;8.138;2023-03-01T07:15:32;11.10;;;6.32;;
20411;SDS011;10365;52.578;8.138;2023-03-01T07:17:57;17.58;;;6.85;;
20411;SDS011;10365;52.578;8.138;2023-03-01T07:20:23;14.85;;;7.75;;
20411;SDS011;10365;52.578;8.138;2023-03-01T07:22:53;18.42;;;9.00;;
20411;SDS011;10365;52.578;8.138;2023-03-01T07:25:19;22.50;;;11.00;;
20411;SDS011;10365;52.578;8.138;2023-03-01T07:27:48;30.20;;;13.05;;
20411;SDS011;10365;52.578;8.138;2023-03-01T07:30:14;38.95;;;14.10;;
20411;SDS011;10365;52.578;8.138;2023-03-01T07:32:39;25.42;;;11.07;;
20411;SDS011;10365;52.578;8.138;2023-03-01T07:35:04;35.45;;;11.18;;
20411;SDS011;10365;52.578;8.138;2023-03-01T07:37:30;31.80;;;10.48;;
20411;SDS011;10365;52.578;8.138;2023-03-01T07:39:55;22.35;;;9.30;;
20411;SDS011;10365;52.578;8.138;2023-03-01T07:42:21;16.33;;;8.43;;
20411;SDS011;10365;52.578;8.138;2023-03-01T07:44:46;22.70;;;9.02;;
20411;SDS011;10365;52.578;8.138;2023-03-01T07:47:11;28.00;;;10.77;;
20411;SDS011;10365;52.578;8.138;2023-03-01T07:49:37;36.47;;;12.35;;
20411;SDS011;10365;52.578;8.138;2023-03-01T07:52:02;34.03;;;11.55;;
20411;SDS011;10365;52.578;8.138;2023-03-01T07:54:27;38.75;;;13.05;;
20411;SDS011;10365;52.578;8.138;2023-03-01T07:56:53;24.17;;;12.18;;
20411;SDS011;10365;52.578;8.138;2023-03-01T07:59:19;25.95;;;11.48;;
20411;SDS011;10365;52.578;8.138;2023-03-01T08:01:45;24.95;;;11.25;;
20411;SDS011;10365;52.578;8.138;2023-03-01T08:04:10;24.10;;;10.70;;
20411;SDS011;10365;52.578;8.138;2023-03-01T08:06:36;27.45;;;12.07;;
20411;SDS011;10365;52.578;8.138;2023-03-01T08:09:02;38.85;;;15.05;;
20411;SDS011;10365;52.578;8.138;2023-03-01T08:11:27;40.08;;;15.57;;
20411;SDS011;10365;52.578;8.138;2023-03-01T08:13:56;58.78;;;17.33;;
20411;SDS011;10365;52.578;8.138;2023-03-01T08:16:22;38.55;;;16.67;;
20411;SDS011;10365;52.578;8.138;2023-03-01T08:18:48;42.63;;;15.02;;
20411;SDS011;10365;52.578;8.138;2023-03-01T08:21:14;27.20;;;15.25;;
20411;SDS011;10365;52.578;8.138;2023-03-01T08:23:40;34.83;;;14.23;;
20411;SDS011;10365;52.578;8.138;2023-03-01T08:28:31;30.80;;;12.93;;
20411;SDS011;10365;52.578;8.138;2023-03-01T08:30:57;29.85;;;13.75;;
20411;SDS011;10365;52.578;8.138;2023-03-01T08:33:22;45.55;;;21.83;;
20411;SDS011;10365;52.578;8.138;2023-03-01T08:35:47;39.08;;;13.77;;
20411;SDS011;10365;52.578;8.138;2023-03-01T08:38:13;28.30;;;13.95;;
20411;SDS011;10365;52.578;8.138;2023-03-01T08:40:38;30.45;;;13.07;;
20411;SDS011;10365;52.578;8.138;2023-03-01T08:43:03;28.25;;;14.10;;
20411;SDS011;10365;52.578;8.138;2023-03-01T08:45:29;26.80;;;12.82;;
20411;SDS011;10365;52.578;8.138;2023-03-01T08:47:54;28.13;;;13.50;;
20411;SDS011;10365;52.578;8.138;2023-03-01T08:50:20;24.48;;;13.45;;
20411;SDS011;10365;52.578;8.138;2023-03-01T08:52:45;31.05;;;13.68;;
20411;SDS011;10365;52.578;8.138;2023-03-01T08:55:11;30.45;;;11.25;;
20411;SDS011;10365;52.578;8.138;2023-03-01T08:57:36;34.97;;;11.27;;
20411;SDS011;10365;52.578;8.138;2023-03-01T09:00:02;15.70;;;10.35;;
20411;SDS011;10365;52.578;8.138;2023-03-01T09:02:28;14.55;;;8.05;;
20411;SDS011;10365;52.578;8.138;2023-03-01T09:04:53;12.13;;;7.47;;
20411;SDS011;10365;52.578;8.138;2023-03-01T09:07:19;13.13;;;7.28;;
20411;SDS011;10365;52.578;8.138;2023-03-01T09:09:44;12.40;;;6.43;;
20411;SDS011;10365;52.578;8.138;2023-03-01T09:12:10;15.55;;;5.75;;
20411;SDS011;10365;52.578;8.138;2023-03-01T09:14:35;13.18;;;5.18;;
20411;SDS011;10365;52.578;8.138;2023-03-01T09:17:03;13.15;;;5.18;;
20411;SDS011;10365;52.578;8.138;2023-03-01T09:19:28;10.25;;;5.13;;
20411;SDS011;10365;52.578;8.138;2023-03-01T09:21:54;8.18;;;4.47;;
20411;SDS011;10365;52.578;8.138;2023-03-01T09:24:21;8.65;;;3.85;;
20411;SDS011;10365;52.578;8.138;2023-03-01T09:26:47;6.20;;;3.67;;
20411;SDS011;10365;52.578;8.138;2023-03-01T09:29:13;6.32;;;3.58;;
20411;SDS011;10365;52.578;8.138;2023-03-01T09:31:39;8.00;;;3.60;;
20411;SDS011;10365;52.578;8.138;2023-03-01T09:34:05;6.07;;;3.75;;
20411;SDS011;10365;52.578;8.138;2023-03-01T09:36:31;7.35;;;3.75;;
20411;SDS011;10365;52.578;8.138;2023-03-01T09:39:00;5.72;;;3.20;;
20411;SDS011;10365;52.578;8.138;2023-03-01T09:43:55;8.18;;;3.72;;
20411;SDS011;10365;52.578;8.138;2023-03-01T09:46:23;6.75;;;3.97;;
20411;SDS011;10365;52.578;8.138;2023-03-01T09:48:50;10.75;;;3.58;;
20411;SDS011;10365;52.578;8.138;2023-03-01T09:51:35;6.55;;;3.60;;
20411;SDS011;10365;52.578;8.138;2023-03-01T09:54:02;7.30;;;3.85;;
20411;SDS011;10365;52.578;8.138;2023-03-01T09:56:40;5.90;;;3.42;;
20411;SDS011;10365;52.578;8.138;2023-03-01T10:01:33;6.90;;;4.28;;
20411;SDS011;10365;52.578;8.138;2023-03-01T10:06:28;10.98;;;4.25;;
20411;SDS011;10365;52.578;8.138;2023-03-01T10:09:12;13.63;;;4.03;;
20411;SDS011;10365;52.578;8.138;2023-03-01T10:11:41;9.15;;;3.25;;
20411;SDS011;10365;52.578;8.138;2023-03-01T10:19:39;7.53;;;3.75;;
20411;SDS011;10365;52.578;8.138;2023-03-01T10:22:15;7.13;;;3.55;;
20411;SDS011;10365;52.578;8.138;2023-03-01T10:24:41;6.22;;;3.33;;
20411;SDS011;10365;52.578;8.138;2023-03-01T10:27:25;6.63;;;3.67;;
20411;SDS011;10365;52.578;8.138;2023-03-01T10:32:17;5.75;;;3.53;;
20411;SDS011;10365;52.578;8.138;2023-03-01T10:34:43;6.10;;;3.75;;
20411;SDS011;10365;52.578;8.138;2023-03-01T10:37:15;7.85;;;3.50;;
20411;SDS011;10365;52.578;8.138;2023-03-01T10:42:27;5.57;;;3.38;;
20411;SDS011;10365;52.578;8.138;2023-03-01T10:44:53;5.72;;;3.55;;
20411;SDS011;10365;52.578;8.138;2023-03-01T10:47:27;7.32;;;3.67;;
20411;SDS011;10365;52.578;8.138;2023-03-01T10:50:03;7.22;;;3.63;;
20411;SDS011;10365;52.578;8.138;2023-03-01T10:52:31;9.05;;;3.40;;
20411;SDS011;10365;52.578;8.138;2023-03-01T10:54:57;6.97;;;3.58;;
20411;SDS011;10365;52.578;8.138;2023-03-01T10:57:44;7.40;;;3.67;;
20411;SDS011;10365;52.578;8.138;2023-03-01T11:01:23;5.82;;;3.47;;
20411;SDS011;10365;52.578;8.138;2023-03-01T11:03:10;7.22;;;3.53;;
20411;SDS011;10365;52.578;8.138;2023-03-01T11:05:36;8.07;;;3.67;;
20411;SDS011;10365;52.578;8.138;2023-03-01T11:08:02;8.40;;;3.60;;
20411;SDS011;10365;52.578;8.138;2023-03-01T11:12:53;8.27;;;3.03;;
20411;SDS011;10365;52.578;8.138;2023-03-01T11:15:26;7.70;;;3.03;;
20411;SDS011;10365;52.578;8.138;2023-03-01T11:17:52;6.30;;;3.50;;
20411;SDS011;10365;52.578;8.138;2023-03-01T11:22:54;6.05;;;3.03;;
20411;SDS011;10365;52.578;8.138;2023-03-01T11:25:23;8.18;;;3.13;;
20411;SDS011;10365;52.578;8.138;2023-03-01T11:27:49;7.05;;;3.50;;
20411;SDS011;10365;52.578;8.138;2023-03-01T11:32:44;7.00;;;3.30;;
20411;SDS011;10365;52.578;8.138;2023-03-01T11:35:13;5.78;;;3.28;;
20411;SDS011;10365;52.578;8.138;2023-03-01T11:48:24;6.70;;;3.67;;
20411;SDS011;10365;52.578;8.138;2023-03-01T11:50:53;6.50;;;3.40;;
20411;SDS011;10365;52.578;8.138;2023-03-01T11:53:39;8.60;;;4.22;;
20411;SDS011;10365;52.578;8.138;2023-03-01T11:56:29;7.60;;;3.53;;
20411;SDS011;10365;52.578;8.138;2023-03-01T12:11:41;6.60;;;3.28;;
20411;SDS011;10365;52.578;8.138;2023-03-01T12:50:26;7.28;;;4.03;;
20411;SDS011;10365;52.578;8.138;2023-03-01T12:52:57;5.20;;;2.72;;
20411;SDS011;10365;52.578;8.138;2023-03-01T12:55:27;6.78;;;3.90;;
20411;SDS011;10365;52.578;8.138;2023-03-01T13:03:26;6.45;;;3.88;;
20411;SDS011;10365;52.578;8.138;2023-03-01T13:11:01;10.95;;;4.50;;
20411;SDS011;10365;52.578;8.138;2023-03-01T13:13:28;8.82;;;4.35;;
20411;SDS011;10365;52.578;8.138;2023-03-01T13:15:54;7.53;;;4.13;;
20411;SDS011;10365;52.578;8.138;2023-03-01T13:23:23;7.43;;;3.53;;
20411;SDS011;10365;52.578;8.138;2023-03-01T13:31:02;8.43;;;4.78;;
20411;SDS011;10365;52.578;8.138;2023-03-01T13:35:57;10.65;;;3.97;;
20411;SDS011;10365;52.578;8.138;2023-03-01T13:38:38;6.60;;;3.60;;
20411;SDS011;10365;52.578;8.138;2023-03-01T13:41:06;6.50;;;3.70;;
20411;SDS011;10365;52.578;8.138;2023-03-01T13:43:35;12.90;;;4.30;;
20411;SDS011;10365;52.578;8.138;2023-03-01T13:46:02;7.20;;;3.90;;
20411;SDS011;10365;52.578;8.138;2023-03-01T13:48:32;6.43;;;3.30;;
20411;SDS011;10365;52.578;8.138;2023-03-01T13:51:20;7.78;;;3.97;;
20411;SDS011;10365;52.578;8.138;2023-03-01T13:53:46;5.95;;;3.88;;
20411;SDS011;10365;52.578;8.138;2023-03-01T13:56:15;11.05;;;4.70;;
20411;SDS011;10365;52.578;8.138;2023-03-01T14:01:27;8.40;;;4.30;;
20411;SDS011;10365;52.578;8.138;2023-03-01T14:03:53;6.32;;;3.28;;
20411;SDS011;10365;52.578;8.138;2023-03-01T14:06:23;9.20;;;4.55;;
20411;SDS011;10365;52.578;8.138;2023-03-01T14:08:50;6.15;;;3.72;;
20411;SDS011;10365;52.578;8.138;2023-03-01T14:11:26;9.82;;;4.70;;
20411;SDS011;10365;52.578;8.138;2023-03-01T14:13:58;10.15;;;4.60;;
20411;SDS011;10365;52.578;8.138;2023-03-01T14:21:29;7.15;;;3.38;;
20411;SDS011;10365;52.578;8.138;2023-03-01T14:23:55;5.40;;;3.40;;
20411;SDS011;10365;52.578;8.138;2023-03-01T14:26:21;7.97;;;3.53;;
20411;SDS011;10365;52.578;8.138;2023-03-01T14:28:47;8.85;;;3.67;;
20411;SDS011;10365;52.578;8.138;2023-03-01T14:31:36;7.93;;;4.07;;
20411;SDS011;10365;52.578;8.138;2023-03-01T14:34:02;7.00;;;3.80;;
20411;SDS011;10365;52.578;8.138;2023-03-01T14:36:28;7.72;;;4.30;;
20411;SDS011;10365;52.578;8.138;2023-03-01T14:38:54;8.35;;;4.10;;
20411;SDS011;10365;52.578;8.138;2023-03-01T14:43:46;8.20;;;4.38;;
20411;SDS011;10365;52.578;8.138;2023-03-01T14:46:19;6.57;;;4.05;;
20411;SDS011;10365;52.578;8.138;2023-03-01T14:48:47;8.45;;;4.13;;
20411;SDS011;10365;52.578;8.138;2023-03-01T14:51:13;7.00;;;3.80;;
20411;SDS011;10365;52.578;8.138;2023-03-01T14:53:38;7.65;;;4.20;;
20411;SDS011;10365;52.578;8.138;2023-03-01T14:56:04;9.32;;;4.35;;
20411;SDS011;10365;52.578;8.138;2023-03-01T14:58:31;7.43;;;3.88;;
20411;SDS011;10365;52.578;8.138;2023-03-01T15:01:00;8.57;;;5.05;;
20411;SDS011;10365;52.578;8.138;2023-03-01T15:03:36;8.82;;;5.03;;
20411;SDS011;10365;52.578;8.138;2023-03-01T15:06:03;9.07;;;4.82;;
20411;SDS011;10365;52.578;8.138;2023-03-01T15:08:29;9.38;;;4.60;;
20411;SDS011;10365;52.578;8.138;2023-03-01T15:13:39;7.50;;;4.55;;
20411;SDS011;10365;52.578;8.138;2023-03-01T15:18:30;9.27;;;4.75;;
20411;SDS011;10365;52.578;8.138;2023-03-01T15:20:55;7.70;;;4.55;;
20411;SDS011;10365;52.578;8.138;2023-03-01T15:23:23;9.23;;;5.40;;
20411;SDS011;10365;52.578;8.138;2023-03-01T15:25:49;11.18;;;5.63;;
20411;SDS011;10365;52.578;8.138;2023-03-01T15:30:53;11.10;;;4.63;;
20411;SDS011;10365;52.578;8.138;2023-03-01T15:33:29;7.93;;;4.95;;
20411;SDS011;10365;52.578;8.138;2023-03-01T15:35:55;8.15;;;4.38;;
20411;SDS011;10365;52.578;8.138;2023-03-01T15:40:49;8.25;;;5.25;;
20411;SDS011;10365;52.578;8.138;2023-03-01T15:43:36;10.65;;;6.25;;
20411;SDS011;10365;52.578;8.138;2023-03-01T15:46:00;19.45;;;10.20;;
20411;SDS011;10365;52.578;8.138;2023-03-01T15:48:26;34.88;;;16.55;;
20411;SDS011;10365;52.578;8.138;2023-03-01T15:50:56;57.03;;;24.27;;
20411;SDS011;10365;52.578;8.138;2023-03-01T15:53:22;24.55;;;12.43;;
20411;SDS011;10365;52.578;8.138;2023-03-01T15:55:48;15.25;;;8.98;;
20411;SDS011;10365;52.578;8.138;2023-03-01T15:58:20;11.55;;;6.97;;
20411;SDS011;10365;52.578;8.138;2023-03-01T16:00:46;9.60;;;6.78;;
20411;SDS011;10365;52.578;8.138;2023-03-01T16:03:13;9.00;;;5.43;;
20411;SDS011;10365;52.578;8.138;2023-03-01T16:05:39;10.15;;;6.32;;
20411;SDS011;10365;52.578;8.138;2023-03-01T16:08:05;11.73;;;6.15;;
20411;SDS011;10365;52.578;8.138;2023-03-01T16:10:31;10.05;;;6.10;;
20411;SDS011;10365;52.578;8.138;2023-03-01T16:12:57;9.77;;;6.03;;
20411;SDS011;10365;52.578;8.138;2023-03-01T16:15:30;11.02;;;6.00;;
20411;SDS011;10365;52.578;8.138;2023-03-01T16:17:55;10.43;;;5.35;;
20411;SDS011;10365;52.578;8.138;2023-03-01T16:20:23;13.80;;;5.90;;
20411;SDS011;10365;52.578;8.138;2023-03-01T16:22:48;14.77;;;6.20;;
20411;SDS011;10365;52.578;8.138;2023-03-01T16:25:15;12.82;;;6.03;;
20411;SDS011;10365;52.578;8.138;2023-03-01T16:27:44;10.30;;;5.50;;
20411;SDS011;10365;52.578;8.138;2023-03-01T16:30:11;8.82;;;5.10;;
20411;SDS011;10365;52.578;8.138;2023-03-01T16:32:41;9.68;;;5.07;;
20411;SDS011;10365;52.578;8.138;2023-03-01T16:35:06;10.48;;;5.40;;
20411;SDS011;10365;52.578;8.138;2023-03-01T16:37:32;14.65;;;5.47;;
20411;SDS011;10365;52.578;8.138;2023-03-01T16:39:58;11.15;;;5.72;;
20411;SDS011;10365;52.578;8.138;2023-03-01T16:42:24;12.35;;;6.03;;
20411;SDS011;10365;52.578;8.138;2023-03-01T16:44:54;11.07;;;5.82;;
20411;SDS011;10365;52.578;8.138;2023-03-01T16:47:19;10.75;;;6.00;;
20411;SDS011;10365;52.578;8.138;2023-03-01T16:49:44;13.27;;;5.95;;
20411;SDS011;10365;52.578;8.138;2023-03-01T16:52:09;13.85;;;6.20;;
20411;SDS011;10365;52.578;8.138;2023-03-01T16:54:35;11.90;;;6.43;;
20411;SDS011;10365;52.578;8.138;2023-03-01T16:57:01;11.35;;;6.40;;
20411;SDS011;10365;52.578;8.138;2023-03-01T16:59:26;10.15;;;5.28;;
20411;SDS011;10365;52.578;8.138;2023-03-01T17:01:52;16.65;;;6.38;;
20411;SDS011;10365;52.578;8.138;2023-03-01T17:04:17;14.68;;;6.53;;
20411;SDS011;10365;52.578;8.138;2023-03-01T17:06:42;13.82;;;7.05;;